sensor_id;sensor_type;location;lat;lon;timestamp;pressure;altitude;pressure_sealevel;temperature;humidity
14089;BME280;7120;52.890;6.040;2022-08-20T00:00:58;101531.81;;;19.24;88.58
14089;BME280;7120;52.890;6.040;2022-08-20T00:03:28;101524.41;;;19.15;89.75
14089;BME280;7120;52.890;6.040;2022-08-20T00:06:00;101526.28;;;19.24;89.22
14089;BME280;7120;52.890;6.040;2022-08-20T00:08:27;101525.84;;;19.34;88.85
14089;BME280;7120;52.890;6.040;2022-08-20T00:10:55;101505.75;;;19.25;88.35
14089;BME280;7120;52.890;6.040;2022-08-20T00:13:24;101516.03;;;19.48;87.74
14089;BME280;7120;52.890;6.040;2022-08-20T00:15:50;101518.44;;;19.38;88.65
14089;BME280;7120;52.890;6.040;2022-08-20T00:18:15;101517.66;;;19.49;88.01
14089;BME280;7120;52.890;6.040;2022-08-20T00:20:45;101512.44;;;19.48;88.04
14089;BME280;7120;52.890;6.040;2022-08-20T00:23:12;101506.91;;;19.48;88.20
14089;BME280;7120;52.890;6.040;2022-08-20T00:25:38;101505.97;;;19.44;88.27
14089;BME280;7120;52.890;6.040;2022-08-20T00:28:04;101507.59;;;19.33;88.65
14089;BME280;7120;52.890;6.040;2022-08-20T00:30:32;101516.38;;;19.35;88.22
14089;BME280;7120;52.890;6.040;2022-08-20T00:33:02;101513.25;;;19.24;88.40
14089;BME280;7120;52.890;6.040;2022-08-20T00:35:31;101512.75;;;19.22;88.54
14089;BME280;7120;52.890;6.040;2022-08-20T00:37:57;101513.31;;;19.15;89.22
14089;BME280;7120;52.890;6.040;2022-08-20T00:40:27;101522.72;;;19.35;88.55
14089;BME280;7120;52.890;6.040;2022-08-20T00:42:57;101519.25;;;19.26;88.85
14089;BME280;7120;52.890;6.040;2022-08-20T00:45:27;101524.22;;;19.33;88.20
14089;BME280;7120;52.890;6.040;2022-08-20T00:47:53;101518.56;;;19.17;87.77
14089;BME280;7120;52.890;6.040;2022-08-20T00:50:25;101524.81;;;19.26;87.85
14089;BME280;7120;52.890;6.040;2022-08-20T00:52:53;101519.00;;;19.19;88.46
14089;BME280;7120;52.890;6.040;2022-08-20T00:55:22;101522.69;;;19.11;88.65
14089;BME280;7120;52.890;6.040;2022-08-20T00:57:54;101512.16;;;19.04;88.74
14089;BME280;7120;52.890;6.040;2022-08-20T01:00:25;101519.78;;;19.07;88.42
14089;BME280;7120;52.890;6.040;2022-08-20T01:02:51;101517.66;;;18.92;88.83
14089;BME280;7120;52.890;6.040;2022-08-20T01:05:17;101526.53;;;18.85;88.86
14089;BME280;7120;52.890;6.040;2022-08-20T01:07:42;101530.81;;;18.83;89.11
14089;BME280;7120;52.890;6.040;2022-08-20T01:10:15;101529.72;;;18.96;88.79
14089;BME280;7120;52.890;6.040;2022-08-20T01:12:44;101530.69;;;18.79;89.61
14089;BME280;7120;52.890;6.040;2022-08-20T01:15:13;101527.84;;;18.67;90.33
14089;BME280;7120;52.890;6.040;2022-08-20T01:17:43;101515.00;;;18.83;89.60
14089;BME280;7120;52.890;6.040;2022-08-20T01:20:14;101527.66;;;19.05;88.70
14089;BME280;7120;52.890;6.040;2022-08-20T01:23:15;101513.19;;;19.00;89.11
14089;BME280;7120;52.890;6.040;2022-08-20T01:28:42;101517.00;;;19.07;88.23
14089;BME280;7120;52.890;6.040;2022-08-20T01:31:11;101520.34;;;19.01;88.21
14089;BME280;7120;52.890;6.040;2022-08-20T01:33:37;101518.47;;;18.92;88.41
14089;BME280;7120;52.890;6.040;2022-08-20T01:36:04;101524.28;;;19.00;87.75
14089;BME280;7120;52.890;6.040;2022-08-20T01:38:29;101526.00;;;18.92;87.88
14089;BME280;7120;52.890;6.040;2022-08-20T01:43:55;101526.09;;;18.96;88.50
14089;BME280;7120;52.890;6.040;2022-08-20T01:46:37;101529.31;;;18.85;88.89
14089;BME280;7120;52.890;6.040;2022-08-20T01:49:15;101523.25;;;18.71;89.66
14089;BME280;7120;52.890;6.040;2022-08-20T01:51:42;101516.28;;;18.65;89.52
14089;BME280;7120;52.890;6.040;2022-08-20T01:54:08;101520.84;;;18.70;88.67
14089;BME280;7120;52.890;6.040;2022-08-20T01:56:34;101526.38;;;18.70;88.19
14089;BME280;7120;52.890;6.040;2022-08-20T01:59:03;101522.78;;;18.69;88.41
14089;BME280;7120;52.890;6.040;2022-08-20T02:01:37;101520.19;;;18.64;88.64
14089;BME280;7120;52.890;6.040;2022-08-20T02:04:06;101520.53;;;18.62;88.43
14089;BME280;7120;52.890;6.040;2022-08-20T02:06:40;101518.88;;;18.49;88.64
14089;BME280;7120;52.890;6.040;2022-08-20T02:09:07;101515.38;;;18.40;89.83
14089;BME280;7120;52.890;6.040;2022-08-20T02:11:34;101523.44;;;18.45;90.04
14089;BME280;7120;52.890;6.040;2022-08-20T02:14:02;101530.94;;;18.45;89.67
14089;BME280;7120;52.890;6.040;2022-08-20T02:16:31;101524.13;;;18.42;90.00
14089;BME280;7120;52.890;6.040;2022-08-20T02:19:00;101516.44;;;18.27;90.56
14089;BME280;7120;52.890;6.040;2022-08-20T02:21:29;101526.91;;;18.42;89.99
14089;BME280;7120;52.890;6.040;2022-08-20T02:23:55;101523.34;;;18.42;89.29
14089;BME280;7120;52.890;6.040;2022-08-20T02:26:21;101535.22;;;18.42;88.90
14089;BME280;7120;52.890;6.040;2022-08-20T02:28:48;101534.06;;;18.22;89.27
14089;BME280;7120;52.890;6.040;2022-08-20T02:31:17;101525.75;;;18.22;89.08
14089;BME280;7120;52.890;6.040;2022-08-20T02:33:43;101531.47;;;18.17;88.55
14089;BME280;7120;52.890;6.040;2022-08-20T02:36:09;101526.63;;;18.14;88.90
14089;BME280;7120;52.890;6.040;2022-08-20T02:38:37;101530.91;;;18.11;88.47
14089;BME280;7120;52.890;6.040;2022-08-20T02:41:03;101521.81;;;18.02;88.82
14089;BME280;7120;52.890;6.040;2022-08-20T02:43:29;101534.91;;;17.93;89.88
14089;BME280;7120;52.890;6.040;2022-08-20T02:45:56;101535.31;;;18.04;89.66
14089;BME280;7120;52.890;6.040;2022-08-20T02:48:22;101529.91;;;17.87;90.62
14089;BME280;7120;52.890;6.040;2022-08-20T02:50:58;101538.06;;;17.83;91.37
14089;BME280;7120;52.890;6.040;2022-08-20T02:53:27;101535.81;;;18.06;91.17
14089;BME280;7120;52.890;6.040;2022-08-20T02:55:53;101544.94;;;18.06;90.82
14089;BME280;7120;52.890;6.040;2022-08-20T02:58:19;101541.53;;;18.01;90.97
14089;BME280;7120;52.890;6.040;2022-08-20T03:00:45;101537.81;;;17.97;90.75
14089;BME280;7120;52.890;6.040;2022-08-20T03:03:12;101543.34;;;17.97;90.93
14089;BME280;7120;52.890;6.040;2022-08-20T03:05:40;101530.34;;;17.97;90.26
14089;BME280;7120;52.890;6.040;2022-08-20T03:08:07;101549.44;;;18.11;89.64
14089;BME280;7120;52.890;6.040;2022-08-20T03:10:35;101544.41;;;18.13;89.18
14089;BME280;7120;52.890;6.040;2022-08-20T03:13:02;101547.16;;;18.13;88.96
14089;BME280;7120;52.890;6.040;2022-08-20T03:15:29;101548.50;;;18.07;89.05
14089;BME280;7120;52.890;6.040;2022-08-20T03:17:55;101534.09;;;17.93;89.10
14089;BME280;7120;52.890;6.040;2022-08-20T03:20:22;101553.13;;;17.94;89.27
14089;BME280;7120;52.890;6.040;2022-08-20T03:22:47;101541.72;;;17.96;89.94
14089;BME280;7120;52.890;6.040;2022-08-20T03:25:14;101551.88;;;18.13;89.09
14089;BME280;7120;52.890;6.040;2022-08-20T03:27:40;101547.78;;;18.19;88.35
14089;BME280;7120;52.890;6.040;2022-08-20T03:30:08;101548.91;;;18.18;88.14
14089;BME280;7120;52.890;6.040;2022-08-20T03:32:35;101544.78;;;18.24;88.15
14089;BME280;7120;52.890;6.040;2022-08-20T03:35:04;101552.78;;;18.25;87.83
14089;BME280;7120;52.890;6.040;2022-08-20T03:37:31;101556.91;;;18.19;88.45
14089;BME280;7120;52.890;6.040;2022-08-20T03:39:57;101547.44;;;18.20;88.13
14089;BME280;7120;52.890;6.040;2022-08-20T03:42:23;101552.19;;;18.11;89.02
14089;BME280;7120;52.890;6.040;2022-08-20T03:44:48;101551.81;;;18.00;89.00
14089;BME280;7120;52.890;6.040;2022-08-20T03:47:14;101569.69;;;18.03;89.11
14089;BME280;7120;52.890;6.040;2022-08-20T03:49:39;101569.50;;;18.08;88.59
14089;BME280;7120;52.890;6.040;2022-08-20T03:52:04;101565.53;;;18.18;87.95
14089;BME280;7120;52.890;6.040;2022-08-20T03:54:30;101566.00;;;18.20;88.17
14089;BME280;7120;52.890;6.040;2022-08-20T03:56:55;101561.94;;;18.17;87.21
14089;BME280;7120;52.890;6.040;2022-08-20T03:59:21;101573.19;;;17.91;88.71
14089;BME280;7120;52.890;6.040;2022-08-20T04:01:46;101555.09;;;17.47;89.83
14089;BME280;7120;52.890;6.040;2022-08-20T04:04:11;101572.97;;;17.58;91.05
14089;BME280;7120;52.890;6.040;2022-08-20T04:06:37;101559.38;;;17.44;90.09
14089;BME280;7120;52.890;6.040;2022-08-20T04:09:02;101566.88;;;17.26;91.13
14089;BME280;7120;52.890;6.040;2022-08-20T04:11:28;101564.13;;;17.26;92.07
14089;BME280;7120;52.890;6.040;2022-08-20T04:13:53;101578.53;;;17.49;90.85
14089;BME280;7120;52.890;6.040;2022-08-20T04:16:18;101568.47;;;17.45;90.51
14089;BME280;7120;52.890;6.040;2022-08-20T04:18:44;101572.03;;;17.45;89.42
14089;BME280;7120;52.890;6.040;2022-08-20T04:21:09;101576.13;;;17.48;88.91
14089;BME280;7120;52.890;6.040;2022-08-20T04:23:34;101575.16;;;17.44;87.71
14089;BME280;7120;52.890;6.040;2022-08-20T04:26:00;101574.53;;;17.29;88.18
14089;BME280;7120;52.890;6.040;2022-08-20T04:28:25;101577.75;;;17.40;88.56
14089;BME280;7120;52.890;6.040;2022-08-20T04:30:57;101588.94;;;17.52;88.17
14089;BME280;7120;52.890;6.040;2022-08-20T04:33:24;101588.28;;;17.47;87.76
14089;BME280;7120;52.890;6.040;2022-08-20T04:35:52;101584.25;;;17.44;87.72
14089;BME280;7120;52.890;6.040;2022-08-20T04:38:20;101593.84;;;17.38;88.01
14089;BME280;7120;52.890;6.040;2022-08-20T04:40:45;101585.09;;;17.36;88.76
14089;BME280;7120;52.890;6.040;2022-08-20T04:43:30;101588.19;;;17.35;87.68
14089;BME280;7120;52.890;6.040;2022-08-20T04:45:59;101589.66;;;17.32;87.73
14089;BME280;7120;52.890;6.040;2022-08-20T04:48:26;101590.00;;;17.22;87.53
14089;BME280;7120;52.890;6.040;2022-08-20T04:50:54;101604.00;;;17.17;87.25
14089;BME280;7120;52.890;6.040;2022-08-20T04:53:23;101603.38;;;17.02;87.18
14089;BME280;7120;52.890;6.040;2022-08-20T04:55:50;101594.44;;;16.97;87.51
14089;BME280;7120;52.890;6.040;2022-08-20T04:58:22;101593.78;;;16.91;87.52
14089;BME280;7120;52.890;6.040;2022-08-20T05:00:51;101599.00;;;16.93;87.38
14089;BME280;7120;52.890;6.040;2022-08-20T05:03:18;101587.78;;;16.89;87.53
14089;BME280;7120;52.890;6.040;2022-08-20T05:05:44;101597.03;;;16.76;88.12
14089;BME280;7120;52.890;6.040;2022-08-20T05:08:11;101601.41;;;16.77;91.02
14089;BME280;7120;52.890;6.040;2022-08-20T05:10:37;101602.25;;;16.86;90.27
14089;BME280;7120;52.890;6.040;2022-08-20T05:13:04;101598.97;;;16.58;89.70
14089;BME280;7120;52.890;6.040;2022-08-20T05:15:30;101596.88;;;16.64;90.42
14089;BME280;7120;52.890;6.040;2022-08-20T05:17:57;101605.78;;;16.52;90.40
14089;BME280;7120;52.890;6.040;2022-08-20T05:20:30;101604.50;;;16.75;89.78
14089;BME280;7120;52.890;6.040;2022-08-20T05:23:00;101601.09;;;16.87;88.87
14089;BME280;7120;52.890;6.040;2022-08-20T05:25:29;101605.31;;;17.02;87.86
14089;BME280;7120;52.890;6.040;2022-08-20T05:27:59;101608.56;;;17.04;87.63
14089;BME280;7120;52.890;6.040;2022-08-20T05:30:27;101612.63;;;17.15;87.23
14089;BME280;7120;52.890;6.040;2022-08-20T05:32:59;101600.41;;;17.25;87.27
14089;BME280;7120;52.890;6.040;2022-08-20T05:35:24;101604.78;;;17.26;87.33
14089;BME280;7120;52.890;6.040;2022-08-20T05:37:50;101606.44;;;17.18;87.08
14089;BME280;7120;52.890;6.040;2022-08-20T05:40:16;101611.13;;;17.35;87.09
14089;BME280;7120;52.890;6.040;2022-08-20T05:42:41;101609.94;;;17.45;85.84
14089;BME280;7120;52.890;6.040;2022-08-20T05:45:07;101609.59;;;17.55;85.55
14089;BME280;7120;52.890;6.040;2022-08-20T05:47:33;101609.59;;;17.55;85.50
14089;BME280;7120;52.890;6.040;2022-08-20T05:50:04;101616.91;;;17.60;85.52
14089;BME280;7120;52.890;6.040;2022-08-20T05:52:29;101620.81;;;17.58;85.40
14089;BME280;7120;52.890;6.040;2022-08-20T05:54:55;101609.28;;;17.56;85.63
14089;BME280;7120;52.890;6.040;2022-08-20T05:57:20;101618.72;;;17.55;86.22
14089;BME280;7120;52.890;6.040;2022-08-20T05:59:46;101625.38;;;17.54;86.52
14089;BME280;7120;52.890;6.040;2022-08-20T06:02:12;101619.06;;;17.45;86.76
14089;BME280;7120;52.890;6.040;2022-08-20T06:04:57;101626.81;;;17.61;85.77
14089;BME280;7120;52.890;6.040;2022-08-20T06:07:22;101619.53;;;17.56;86.07
14089;BME280;7120;52.890;6.040;2022-08-20T06:09:48;101627.63;;;17.61;86.21
14089;BME280;7120;52.890;6.040;2022-08-20T06:12:14;101636.09;;;17.65;85.86
14089;BME280;7120;52.890;6.040;2022-08-20T06:14:41;101620.13;;;17.62;85.88
14089;BME280;7120;52.890;6.040;2022-08-20T06:17:10;101640.19;;;17.50;86.30
14089;BME280;7120;52.890;6.040;2022-08-20T06:19:37;101646.50;;;17.59;86.53
14089;BME280;7120;52.890;6.040;2022-08-20T06:22:03;101643.56;;;17.73;86.74
14089;BME280;7120;52.890;6.040;2022-08-20T06:24:29;101640.75;;;17.90;85.84
14089;BME280;7120;52.890;6.040;2022-08-20T06:26:56;101635.81;;;18.04;85.31
14089;BME280;7120;52.890;6.040;2022-08-20T06:29:22;101633.63;;;18.19;85.35
14089;BME280;7120;52.890;6.040;2022-08-20T06:31:48;101640.44;;;18.21;84.62
14089;BME280;7120;52.890;6.040;2022-08-20T06:34:13;101640.53;;;18.33;85.19
14089;BME280;7120;52.890;6.040;2022-08-20T06:36:39;101634.13;;;18.42;84.02
14089;BME280;7120;52.890;6.040;2022-08-20T06:39:04;101637.34;;;18.44;83.97
14089;BME280;7120;52.890;6.040;2022-08-20T06:41:29;101631.75;;;18.52;83.78
14089;BME280;7120;52.890;6.040;2022-08-20T06:43:55;101643.09;;;18.68;83.81
14089;BME280;7120;52.890;6.040;2022-08-20T06:46:20;101644.38;;;18.71;83.34
14089;BME280;7120;52.890;6.040;2022-08-20T06:48:47;101637.22;;;18.70;83.37
14089;BME280;7120;52.890;6.040;2022-08-20T06:51:13;101639.56;;;18.80;81.98
14089;BME280;7120;52.890;6.040;2022-08-20T06:53:38;101642.16;;;18.85;83.00
14089;BME280;7120;52.890;6.040;2022-08-20T06:56:04;101630.50;;;18.91;83.82
14089;BME280;7120;52.890;6.040;2022-08-20T06:58:29;101634.63;;;19.06;82.77
14089;BME280;7120;52.890;6.040;2022-08-20T07:00:56;101642.03;;;19.14;82.75
14089;BME280;7120;52.890;6.040;2022-08-20T07:03:22;101641.03;;;19.19;75.31
14089;BME280;7120;52.890;6.040;2022-08-20T07:05:47;101643.09;;;19.22;78.89
14089;BME280;7120;52.890;6.040;2022-08-20T07:08:15;101641.16;;;19.23;77.54
14089;BME280;7120;52.890;6.040;2022-08-20T07:10:43;101657.88;;;19.14;77.58
14089;BME280;7120;52.890;6.040;2022-08-20T07:13:10;101650.38;;;19.47;79.22
14089;BME280;7120;52.890;6.040;2022-08-20T07:15:36;101651.34;;;19.64;75.82
14089;BME280;7120;52.890;6.040;2022-08-20T07:18:03;101654.59;;;19.66;76.16
14089;BME280;7120;52.890;6.040;2022-08-20T07:20:31;101652.72;;;19.58;71.32
14089;BME280;7120;52.890;6.040;2022-08-20T07:22:57;101660.53;;;19.10;68.32
14089;BME280;7120;52.890;6.040;2022-08-20T07:25:23;101663.41;;;19.14;71.48
14089;BME280;7120;52.890;6.040;2022-08-20T07:27:48;101664.13;;;19.23;69.41
14089;BME280;7120;52.890;6.040;2022-08-20T07:30:22;101651.16;;;19.15;68.71
14089;BME280;7120;52.890;6.040;2022-08-20T07:33:06;101657.84;;;19.35;70.14
14089;BME280;7120;52.890;6.040;2022-08-20T07:35:31;101664.50;;;19.55;69.83
14089;BME280;7120;52.890;6.040;2022-08-20T07:37:57;101662.28;;;19.81;74.49
14089;BME280;7120;52.890;6.040;2022-08-20T07:40:27;101659.72;;;20.00;72.37
14089;BME280;7120;52.890;6.040;2022-08-20T07:42:55;101657.03;;;19.67;67.37
14089;BME280;7120;52.890;6.040;2022-08-20T07:45:21;101662.13;;;19.44;66.29
14089;BME280;7120;52.890;6.040;2022-08-20T07:47:47;101642.25;;;20.00;67.58
14089;BME280;7120;52.890;6.040;2022-08-20T07:50:17;101656.72;;;20.42;61.85
14089;BME280;7120;52.890;6.040;2022-08-20T07:52:44;101661.47;;;20.54;67.74
14089;BME280;7120;52.890;6.040;2022-08-20T07:55:11;101663.75;;;20.64;63.10
14089;BME280;7120;52.890;6.040;2022-08-20T07:57:37;101665.28;;;20.74;64.74
14089;BME280;7120;52.890;6.040;2022-08-20T08:00:08;101674.59;;;20.94;66.24
14089;BME280;7120;52.890;6.040;2022-08-20T08:02:34;101673.84;;;21.09;66.53
14089;BME280;7120;52.890;6.040;2022-08-20T08:05:00;101660.31;;;21.07;59.27
14089;BME280;7120;52.890;6.040;2022-08-20T08:07:26;101661.72;;;21.57;59.01
14089;BME280;7120;52.890;6.040;2022-08-20T08:09:53;101658.53;;;21.15;59.04
14089;BME280;7120;52.890;6.040;2022-08-20T08:12:19;101665.88;;;21.79;60.20
14089;BME280;7120;52.890;6.040;2022-08-20T08:14:46;101667.13;;;21.82;55.58
14089;BME280;7120;52.890;6.040;2022-08-20T08:17:12;101670.63;;;21.79;57.17
14089;BME280;7120;52.890;6.040;2022-08-20T08:19:42;101662.97;;;22.39;60.29
14089;BME280;7120;52.890;6.040;2022-08-20T08:22:11;101669.44;;;22.78;57.72
14089;BME280;7120;52.890;6.040;2022-08-20T08:24:37;101672.56;;;22.57;59.74
14089;BME280;7120;52.890;6.040;2022-08-20T08:27:03;101674.91;;;22.90;54.89
14089;BME280;7120;52.890;6.040;2022-08-20T08:29:29;101673.72;;;23.69;52.40
14089;BME280;7120;52.890;6.040;2022-08-20T08:31:54;101675.69;;;24.14;50.29
14089;BME280;7120;52.890;6.040;2022-08-20T08:34:20;101678.31;;;24.30;50.94
14089;BME280;7120;52.890;6.040;2022-08-20T08:36:50;101678.53;;;24.41;49.32
14089;BME280;7120;52.890;6.040;2022-08-20T08:39:16;101683.56;;;23.43;49.90
14089;BME280;7120;52.890;6.040;2022-08-20T08:41:44;101679.19;;;23.23;58.09
14089;BME280;7120;52.890;6.040;2022-08-20T08:44:16;101691.50;;;23.61;57.03
14089;BME280;7120;52.890;6.040;2022-08-20T08:47:01;101689.41;;;24.76;46.82
14089;BME280;7120;52.890;6.040;2022-08-20T08:49:32;101694.72;;;25.11;43.07
14089;BME280;7120;52.890;6.040;2022-08-20T08:52:05;101698.19;;;25.34;45.06
14089;BME280;7120;52.890;6.040;2022-08-20T08:54:33;101687.97;;;25.15;46.67
14089;BME280;7120;52.890;6.040;2022-08-20T08:56:59;101695.06;;;25.39;51.89
14089;BME280;7120;52.890;6.040;2022-08-20T08:59:28;101707.66;;;25.97;43.44
14089;BME280;7120;52.890;6.040;2022-08-20T09:01:56;101697.38;;;25.71;47.00
14089;BME280;7120;52.890;6.040;2022-08-20T09:04:27;101703.16;;;25.85;47.28
14089;BME280;7120;52.890;6.040;2022-08-20T09:06:55;101702.34;;;25.47;42.09
14089;BME280;7120;52.890;6.040;2022-08-20T09:09:25;101709.25;;;26.42;43.40
14089;BME280;7120;52.890;6.040;2022-08-20T09:11:56;101713.81;;;26.13;43.67
14089;BME280;7120;52.890;6.040;2022-08-20T09:14:25;101714.88;;;25.98;42.16
14089;BME280;7120;52.890;6.040;2022-08-20T09:16:51;101715.81;;;25.72;45.49
14089;BME280;7120;52.890;6.040;2022-08-20T09:19:16;101712.28;;;26.74;42.80
14089;BME280;7120;52.890;6.040;2022-08-20T09:21:42;101700.00;;;27.04;41.91
14089;BME280;7120;52.890;6.040;2022-08-20T09:24:07;101707.91;;;26.84;45.46
14089;BME280;7120;52.890;6.040;2022-08-20T09:26:32;101712.50;;;27.06;43.13
14089;BME280;7120;52.890;6.040;2022-08-20T09:28:58;101716.59;;;27.34;41.41
14089;BME280;7120;52.890;6.040;2022-08-20T09:31:23;101715.91;;;27.65;39.52
14089;BME280;7120;52.890;6.040;2022-08-20T09:33:50;101708.63;;;27.43;43.21
14089;BME280;7120;52.890;6.040;2022-08-20T09:36:15;101704.69;;;27.69;41.09
14089;BME280;7120;52.890;6.040;2022-08-20T09:38:41;101713.47;;;27.60;39.96
14089;BME280;7120;52.890;6.040;2022-08-20T09:41:06;101702.66;;;27.66;40.99
14089;BME280;7120;52.890;6.040;2022-08-20T09:43:31;101704.59;;;27.48;38.38
14089;BME280;7120;52.890;6.040;2022-08-20T09:45:57;101709.81;;;27.46;39.28
14089;BME280;7120;52.890;6.040;2022-08-20T09:48:22;101703.84;;;27.61;39.53
14089;BME280;7120;52.890;6.040;2022-08-20T09:50:48;101700.81;;;27.01;38.83
14089;BME280;7120;52.890;6.040;2022-08-20T09:53:14;101702.13;;;26.04;40.87
14089;BME280;7120;52.890;6.040;2022-08-20T09:55:44;101706.25;;;26.21;43.60
14089;BME280;7120;52.890;6.040;2022-08-20T09:58:35;101707.84;;;26.66;40.18
14089;BME280;7120;52.890;6.040;2022-08-20T10:01:07;101699.31;;;27.21;47.44
14089;BME280;7120;52.890;6.040;2022-08-20T10:03:33;101710.19;;;27.37;44.82
14089;BME280;7120;52.890;6.040;2022-08-20T10:05:58;101712.13;;;27.19;44.70
14089;BME280;7120;52.890;6.040;2022-08-20T10:08:24;101713.56;;;27.85;35.57
14089;BME280;7120;52.890;6.040;2022-08-20T10:10:50;101725.63;;;28.18;46.02
14089;BME280;7120;52.890;6.040;2022-08-20T10:13:15;101723.13;;;27.67;37.86
14089;BME280;7120;52.890;6.040;2022-08-20T10:15:41;101715.16;;;27.86;35.94
14089;BME280;7120;52.890;6.040;2022-08-20T10:18:07;101710.94;;;26.50;40.32
14089;BME280;7120;52.890;6.040;2022-08-20T10:20:33;101716.63;;;27.37;40.98
14089;BME280;7120;52.890;6.040;2022-08-20T10:23:00;101715.09;;;28.86;37.23
14089;BME280;7120;52.890;6.040;2022-08-20T10:25:25;101707.06;;;28.85;35.25
14089;BME280;7120;52.890;6.040;2022-08-20T10:27:52;101695.09;;;27.91;35.93
14089;BME280;7120;52.890;6.040;2022-08-20T10:30:18;101705.91;;;27.79;39.64
14089;BME280;7120;52.890;6.040;2022-08-20T10:32:43;101707.94;;;28.25;36.10
14089;BME280;7120;52.890;6.040;2022-08-20T10:35:08;101707.50;;;28.72;33.93
14089;BME280;7120;52.890;6.040;2022-08-20T10:37:34;101708.34;;;28.16;35.68
14089;BME280;7120;52.890;6.040;2022-08-20T10:40:00;101716.34;;;28.71;36.97
14089;BME280;7120;52.890;6.040;2022-08-20T10:42:26;101709.56;;;28.43;38.04
14089;BME280;7120;52.890;6.040;2022-08-20T10:44:51;101709.53;;;28.65;37.16
14089;BME280;7120;52.890;6.040;2022-08-20T10:47:18;101719.19;;;28.53;35.84
14089;BME280;7120;52.890;6.040;2022-08-20T10:49:44;101714.81;;;28.41;36.37
14089;BME280;7120;52.890;6.040;2022-08-20T10:52:10;101702.59;;;27.55;38.67
14089;BME280;7120;52.890;6.040;2022-08-20T10:54:35;101708.53;;;27.15;40.11
14089;BME280;7120;52.890;6.040;2022-08-20T10:57:03;101711.56;;;26.33;44.44
14089;BME280;7120;52.890;6.040;2022-08-20T10:59:29;101722.94;;;26.47;44.64
14089;BME280;7120;52.890;6.040;2022-08-20T11:01:54;101707.44;;;27.62;46.31
14089;BME280;7120;52.890;6.040;2022-08-20T11:04:19;101714.00;;;28.12;42.39
14089;BME280;7120;52.890;6.040;2022-08-20T11:06:45;101719.59;;;28.52;40.59
14089;BME280;7120;52.890;6.040;2022-08-20T11:09:10;101706.34;;;28.41;38.53
14089;BME280;7120;52.890;6.040;2022-08-20T11:11:35;101720.38;;;27.95;39.26
14089;BME280;7120;52.890;6.040;2022-08-20T11:14:01;101712.56;;;27.24;41.69
14089;BME280;7120;52.890;6.040;2022-08-20T11:16:26;101732.81;;;26.86;42.52
14089;BME280;7120;52.890;6.040;2022-08-20T11:18:51;101728.78;;;26.79;40.18
14089;BME280;7120;52.890;6.040;2022-08-20T11:21:17;101722.97;;;27.20;41.27
14089;BME280;7120;52.890;6.040;2022-08-20T11:23:42;101718.75;;;26.82;42.40
14089;BME280;7120;52.890;6.040;2022-08-20T11:26:07;101718.31;;;27.67;42.70
14089;BME280;7120;52.890;6.040;2022-08-20T11:28:33;101721.84;;;27.39;40.12
14089;BME280;7120;52.890;6.040;2022-08-20T11:31:00;101733.59;;;26.82;40.90
14089;BME280;7120;52.890;6.040;2022-08-20T11:33:25;101732.66;;;25.38;40.64
14089;BME280;7120;52.890;6.040;2022-08-20T11:35:50;101731.59;;;24.63;41.52
14089;BME280;7120;52.890;6.040;2022-08-20T11:38:17;101736.88;;;25.25;41.71
14089;BME280;7120;52.890;6.040;2022-08-20T11:40:43;101729.81;;;24.52;43.80
14089;BME280;7120;52.890;6.040;2022-08-20T11:43:08;101724.34;;;24.59;44.98
14089;BME280;7120;52.890;6.040;2022-08-20T11:45:33;101725.47;;;24.31;43.43
14089;BME280;7120;52.890;6.040;2022-08-20T11:47:58;101737.38;;;24.74;46.97
14089;BME280;7120;52.890;6.040;2022-08-20T11:50:25;101730.97;;;26.05;45.40
14089;BME280;7120;52.890;6.040;2022-08-20T11:52:50;101732.09;;;26.41;42.72
14089;BME280;7120;52.890;6.040;2022-08-20T11:55:16;101734.00;;;27.68;39.40
14089;BME280;7120;52.890;6.040;2022-08-20T11:57:44;101720.81;;;28.33;34.69
14089;BME280;7120;52.890;6.040;2022-08-20T12:00:17;101723.22;;;28.02;35.95
14089;BME280;7120;52.890;6.040;2022-08-20T12:02:42;101712.28;;;28.86;37.27
14089;BME280;7120;52.890;6.040;2022-08-20T12:05:09;101724.81;;;28.71;34.25
14089;BME280;7120;52.890;6.040;2022-08-20T12:07:35;101728.97;;;30.13;29.24
14089;BME280;7120;52.890;6.040;2022-08-20T12:10:01;101724.72;;;29.87;31.76
14089;BME280;7120;52.890;6.040;2022-08-20T12:12:26;101724.06;;;29.65;31.75
14089;BME280;7120;52.890;6.040;2022-08-20T12:14:52;101729.19;;;28.86;31.31
14089;BME280;7120;52.890;6.040;2022-08-20T12:17:21;101735.25;;;27.88;32.77
14089;BME280;7120;52.890;6.040;2022-08-20T12:19:49;101726.38;;;28.97;31.06
14089;BME280;7120;52.890;6.040;2022-08-20T12:22:15;101731.75;;;29.61;32.55
14089;BME280;7120;52.890;6.040;2022-08-20T12:24:41;101726.88;;;28.35;33.56
14089;BME280;7120;52.890;6.040;2022-08-20T12:27:21;101725.84;;;29.23;32.59
14089;BME280;7120;52.890;6.040;2022-08-20T12:29:48;101729.78;;;29.44;32.96
14089;BME280;7120;52.890;6.040;2022-08-20T12:32:16;101732.47;;;28.06;35.80
14089;BME280;7120;52.890;6.040;2022-08-20T12:34:42;101724.69;;;27.53;38.95
14089;BME280;7120;52.890;6.040;2022-08-20T12:37:10;101728.38;;;26.84;37.40
14089;BME280;7120;52.890;6.040;2022-08-20T12:39:40;101730.69;;;26.65;37.88
14089;BME280;7120;52.890;6.040;2022-08-20T12:42:06;101739.78;;;26.47;41.44
14089;BME280;7120;52.890;6.040;2022-08-20T12:44:32;101726.28;;;26.71;38.01
14089;BME280;7120;52.890;6.040;2022-08-20T12:49:35;101724.47;;;28.40;35.41
14089;BME280;7120;52.890;6.040;2022-08-20T12:52:00;101716.75;;;28.66;36.80
14089;BME280;7120;52.890;6.040;2022-08-20T12:54:26;101711.50;;;28.93;35.82
14089;BME280;7120;52.890;6.040;2022-08-20T12:56:51;101725.59;;;27.89;36.02
14089;BME280;7120;52.890;6.040;2022-08-20T12:59:17;101717.94;;;27.72;37.64
14089;BME280;7120;52.890;6.040;2022-08-20T13:01:43;101712.94;;;27.16;38.33
14089;BME280;7120;52.890;6.040;2022-08-20T13:04:08;101722.00;;;28.64;35.62
14089;BME280;7120;52.890;6.040;2022-08-20T13:06:34;101719.16;;;28.78;33.94
14089;BME280;7120;52.890;6.040;2022-08-20T13:08:59;101723.94;;;29.83;29.59